createdAt,value
2018-05-23T07:00:06.834Z,85
2018-05-23T07:00:56.895Z,49.3
2018-05-23T07:01:46.963Z,48.1
2018-05-23T07:02:37.304Z,46.8
2018-05-23T07:06:47.089Z,85
2018-05-23T07:07:37.116Z,48.3
2018-05-23T07:08:27.198Z,48.1
2018-05-23T07:09:17.855Z,47.8
2018-05-23T07:10:07.613Z,47.6
2018-05-23T07:13:27.915Z,48.1
2018-05-23T07:14:18.199Z,48.2
2018-05-23T07:15:08.083Z,48.3
2018-05-23T07:15:58.069Z,48.3
2018-05-23T07:16:48.132Z,48.3
2018-05-23T07:17:38.467Z,48.4
2018-05-23T07:18:28.530Z,48.6
2018-05-23T07:19:18.601Z,48.8
2018-05-23T07:20:08.398Z,49
2018-05-23T07:20:58.758Z,49.2
2018-05-23T07:21:48.890Z,49.3
2018-05-23T07:22:38.856Z,49.3
2018-05-23T07:23:28.917Z,49.4
2018-05-23T07:24:18.987Z,49.4
2018-05-23T07:25:09.051Z,49.4
2018-05-23T07:25:59.499Z,49.4
2018-05-23T07:26:49.183Z,49.4
2018-05-23T07:27:38.966Z,49.5
2018-05-23T07:28:29.304Z,49.6
2018-05-23T07:29:19.099Z,49.6
2018-05-23T07:30:09.434Z,49.7
2018-05-23T07:30:59.513Z,49.8
2018-05-23T07:31:49.966Z,49.8
2018-05-23T07:32:39.647Z,49.9
2018-05-23T07:33:29.689Z,49.9
2018-05-23T07:34:19.834Z,50.1
2018-05-23T07:35:09.829Z,50.2
2018-05-23T07:35:59.885Z,50.4
2018-05-23T07:36:49.952Z,50.5
2018-05-23T07:37:40.019Z,50.6
2018-05-23T07:38:30.438Z,50.8
2018-05-23T07:39:20.141Z,50.9
2018-05-23T07:40:09.956Z,51.1
2018-05-23T07:41:00.285Z,51.4
2018-05-23T07:41:50.348Z,51.6
2018-05-23T07:42:40.406Z,51.8
2018-05-23T07:43:29.910Z,52
2018-05-23T07:44:20.242Z,52.3
2018-05-23T07:46:00.598Z,52.5
2018-05-23T07:46:50.724Z,52.6
2018-05-23T07:47:40.237Z,52.8
2018-05-23T07:48:30.569Z,52.9
2018-05-23T07:49:20.914Z,53
2018-05-23T07:50:10.991Z,53.2
2018-05-23T07:51:01.052Z,53.4
2018-05-23T07:51:51.116Z,53.6
2018-05-23T07:52:40.890Z,53.9
2018-05-23T07:53:31.251Z,54.1
2018-05-23T07:54:21.021Z,54.4
2018-05-23T07:55:11.369Z,54.6
2018-05-23T07:56:01.156Z,54.8
2018-05-23T07:56:51.520Z,55
2018-05-23T07:57:41.583Z,55.2
2018-05-23T07:58:31.355Z,55.3
2018-05-23T07:59:21.687Z,55.5
2018-05-23T08:00:11.191Z,55.6
2018-05-23T08:01:01.845Z,55.6
2018-05-23T08:01:51.901Z,55.6
2018-05-23T08:02:41.953Z,55.6
2018-05-23T08:03:32.010Z,55.6
2018-05-23T08:04:22.098Z,55.7
2018-05-23T08:05:12.181Z,55.8
2018-05-23T08:06:01.954Z,56
2018-05-23T08:06:52.282Z,56.2
2018-05-23T08:07:42.375Z,56.3
2018-05-23T08:08:32.415Z,56.4
2018-05-23T08:09:22.469Z,56.5
2018-05-23T08:10:12.540Z,56.6
2018-05-23T08:11:02.608Z,56.8
2018-05-23T08:11:52.654Z,56.9
2018-05-23T08:12:42.745Z,56.9
2018-05-23T08:13:32.792Z,57
2018-05-23T08:14:22.858Z,57.1
2018-05-23T08:15:12.647Z,57.1
2018-05-23T08:16:02.989Z,57.3
2018-05-23T08:16:52.509Z,57.4
2018-05-23T08:17:43.118Z,57.6
2018-05-23T08:18:32.908Z,57.9
2018-05-23T08:19:22.986Z,58.2
2018-05-23T08:20:13.381Z,58.4
2018-05-23T08:21:03.406Z,58.4
2018-05-23T08:21:53.432Z,58.3
2018-05-23T08:22:43.516Z,58.2
2018-05-23T08:23:33.585Z,58.1
2018-05-23T08:24:23.635Z,58
2018-05-23T08:25:13.419Z,57.9
2018-05-23T08:26:03.779Z,57.6
2018-05-23T08:26:53.560Z,57.3
2018-05-23T08:27:43.887Z,57
2018-05-23T08:28:33.957Z,56.8
2018-05-23T08:29:23.757Z,56.5
2018-05-23T08:30:14.167Z,56.4
2018-05-23T08:31:04.142Z,56.2
2018-05-23T08:31:54.211Z,56.1
2018-05-23T08:32:44.271Z,55.9
2018-05-23T08:33:34.060Z,55.9
2018-05-23T08:34:24.395Z,55.9
2018-05-23T08:35:14.465Z,55.8
2018-05-23T08:36:04.273Z,55.5
2018-05-23T08:36:54.601Z,55.2
2018-05-23T08:37:44.378Z,54.8
2018-05-23T08:38:34.724Z,54.4
2018-05-23T08:39:24.785Z,54.1
2018-05-23T08:40:14.861Z,53.7
2018-05-23T08:41:04.640Z,53.3
2018-05-23T08:41:54.694Z,53
2018-05-23T08:42:44.762Z,52.7
2018-05-23T08:44:25.180Z,52.1
2018-05-23T08:45:15.364Z,51.9
2018-05-23T08:46:05.685Z,51.7
2018-05-23T08:46:55.117Z,51.6
2018-05-23T08:47:45.443Z,51.4
2018-05-23T08:48:35.502Z,51.3
2018-05-23T08:49:25.007Z,51.2
2018-05-23T08:50:15.633Z,51.2
2018-05-23T08:51:05.702Z,51.3
2018-05-23T08:51:55.795Z,51.4
2018-05-23T08:52:45.834Z,51.6
2018-05-23T08:53:35.620Z,51.7
2018-05-23T08:55:16.042Z,52.2
2018-05-23T08:56:06.092Z,52.5
2018-05-23T08:56:56.152Z,52.8
2018-05-23T08:57:46.217Z,53
2018-05-23T08:58:35.737Z,53.1
2018-05-23T08:59:26.369Z,53.2
2018-05-23T09:00:16.404Z,53.4
2018-05-23T09:01:06.466Z,53.6
2018-05-23T09:01:56.526Z,53.9
2018-05-23T09:02:46.136Z,54.2
2018-05-23T09:03:36.663Z,54.5
2018-05-23T09:04:26.757Z,54.7
2018-05-23T09:05:16.807Z,54.8
2018-05-23T09:06:06.848Z,54.8
2018-05-23T09:06:56.919Z,54.9
2018-05-23T09:07:46.731Z,54.9
2018-05-23T09:08:37.057Z,54.9
2018-05-23T09:09:27.131Z,55
2018-05-23T09:10:17.179Z,55
2018-05-23T09:11:07.259Z,55
2018-05-23T09:11:57.319Z,55.1
2018-05-23T09:12:47.117Z,55.1
2018-05-23T09:13:36.884Z,55.1
2018-05-23T09:14:27.239Z,55.1
2018-05-23T09:15:17.582Z,55
2018-05-23T09:16:07.222Z,55
2018-05-23T09:16:56.949Z,55.1
2018-05-23T09:17:47.283Z,55.3
2018-05-23T09:18:37.825Z,55.6
2018-05-23T09:19:27.908Z,55.9
2018-05-23T09:20:17.972Z,56.1
2018-05-23T09:21:08.027Z,56.3
2018-05-23T09:21:58.100Z,56.4
2018-05-23T09:22:48.152Z,56.4
2018-05-23T09:23:38.227Z,56.5
2018-05-23T09:24:28.290Z,56.5
2018-05-23T09:25:18.230Z,56.4
2018-05-23T09:26:08.407Z,56.1
2018-05-23T09:26:58.209Z,55.8
2018-05-23T09:27:48.279Z,55.3
2018-05-23T09:28:38.596Z,54.9
2018-05-23T09:29:28.695Z,54.6
2018-05-23T09:30:18.752Z,54.4
2018-05-23T09:31:08.534Z,54.1
2018-05-23T09:31:58.889Z,53.9
2018-05-23T09:32:48.922Z,53.6
2018-05-23T09:33:38.986Z,53.3
2018-05-23T09:34:29.056Z,52.8
2018-05-23T09:35:19.132Z,52.4
2018-05-23T09:36:09.185Z,52.1
2018-05-23T09:36:59.270Z,51.8
2018-05-23T09:37:48.767Z,51.5
2018-05-23T09:38:39.372Z,51.3
2018-05-23T09:39:29.442Z,51.1
2018-05-23T09:40:19.508Z,50.9
2018-05-23T09:57:50.880Z,54.5
2018-05-23T09:58:40.946Z,54.8
2018-05-23T09:59:30.989Z,55.1
2018-05-23T10:00:20.767Z,55.4
2018-05-23T10:01:10.844Z,55.7
2018-05-23T10:02:01.270Z,55.9
2018-05-23T10:02:51.237Z,56.3
2018-05-23T10:03:41.307Z,56.6
2018-05-23T10:04:31.368Z,56.9
2018-05-23T10:05:21.432Z,57.2
2018-05-23T10:06:11.227Z,57.5
2018-05-23T10:07:01.290Z,57.8
2018-05-23T10:07:51.461Z,58.1
2018-05-23T10:08:41.698Z,58.4
2018-05-23T10:09:31.496Z,58.7
2018-05-23T10:10:21.825Z,59
2018-05-23T10:11:11.897Z,59.4
2018-05-23T10:12:01.965Z,59.7
2018-05-23T10:12:52.011Z,60
2018-05-23T10:13:41.829Z,60.3
2018-05-23T10:14:32.150Z,60.7
2018-05-23T10:15:22.216Z,61
2018-05-23T10:16:12.271Z,61.3
2018-05-23T10:17:02.352Z,61.6
2018-05-23T10:17:52.424Z,61.8
2018-05-23T10:18:42.504Z,62
2018-05-23T10:19:32.532Z,62.2
2018-05-23T10:20:22.601Z,62.4
2018-05-23T10:21:12.669Z,62.5
2018-05-23T10:22:02.736Z,62.6
2018-05-23T10:22:52.530Z,62.8
2018-05-23T10:23:42.592Z,62.9
2018-05-23T10:24:32.929Z,62.9
2018-05-23T10:25:22.994Z,63
2018-05-23T10:26:13.134Z,62.9
2018-05-23T10:27:03.135Z,62.9
2018-05-23T10:27:53.186Z,62.9
2018-05-23T10:28:42.967Z,62.9
2018-05-23T10:29:33.321Z,62.9
2018-05-23T10:30:23.403Z,63.1
2018-05-23T10:31:13.177Z,63.3
2018-05-23T10:32:03.239Z,63.4
2018-05-23T10:32:53.328Z,63.4
2018-05-23T10:33:43.643Z,63.5
2018-05-23T10:34:33.444Z,63.4
2018-05-23T10:35:23.782Z,63.4
2018-05-23T10:36:13.577Z,63.4
2018-05-23T10:37:03.940Z,63.3
2018-05-23T10:37:53.979Z,63.1
2018-05-23T10:38:44.033Z,63.1
2018-05-23T10:39:34.108Z,63.2
2018-05-23T10:40:24.188Z,63.3
2018-05-23T10:41:13.661Z,63.3
2018-05-23T10:42:04.019Z,63.4
2018-05-23T10:42:54.370Z,63.5
2018-05-23T10:43:44.152Z,63.5
2018-05-23T10:44:34.227Z,63.4
2018-05-23T10:45:24.574Z,63.4
2018-05-23T10:46:15.041Z,63.4
2018-05-23T10:47:04.413Z,63.4
2018-05-23T10:47:54.465Z,63.4
2018-05-23T10:48:44.529Z,63.3
2018-05-23T10:49:34.882Z,63.3
2018-05-23T10:50:24.665Z,63.3
2018-05-23T10:51:15.010Z,63.3
2018-05-23T10:52:05.125Z,63.4
2018-05-23T10:52:54.858Z,63.4
2018-05-23T10:53:45.207Z,63.5
2018-05-23T10:54:35.296Z,63.6
2018-05-23T10:55:25.338Z,63.6
2018-05-23T10:56:15.145Z,63.7
2018-05-23T10:57:05.796Z,63.8
2018-05-23T10:57:55.573Z,63.9
2018-05-23T10:58:45.630Z,64
2018-05-23T10:59:35.667Z,64.2
2018-05-23T11:00:25.458Z,64.3
2018-05-23T11:01:15.518Z,64.4
2018-05-23T11:02:05.865Z,64.4
2018-05-23T11:02:55.723Z,64.5
2018-05-23T11:03:45.998Z,64.4
2018-05-23T11:04:35.775Z,64.4
2018-05-23T11:05:26.135Z,64.3
2018-05-23T11:06:16.190Z,64.3
2018-05-23T11:07:05.965Z,64.3
2018-05-23T11:07:56.400Z,64.3
2018-05-23T11:08:46.388Z,64.3
2018-05-23T11:09:36.454Z,64.3
2018-05-23T11:10:26.525Z,64.3
2018-05-23T11:11:16.578Z,64.3
2018-05-23T11:12:06.377Z,64.4
2018-05-23T11:12:56.731Z,64.5
2018-05-23T11:13:46.498Z,64.6
2018-05-23T11:14:36.567Z,64.7
2018-05-23T11:15:26.617Z,64.8
2018-05-23T11:16:16.969Z,64.9
2018-05-23T11:17:06.746Z,64.9
2018-05-23T11:17:57.097Z,64.9
2018-05-23T11:18:46.901Z,64.9
2018-05-23T11:19:37.233Z,64.9
2018-05-23T11:20:27.310Z,64.8
2018-05-23T11:21:17.360Z,64.8
2018-05-23T11:22:07.420Z,64.6
2018-05-23T11:22:57.489Z,64.5
2018-05-23T11:23:47.636Z,64.4
2018-05-23T11:24:37.383Z,64.4
2018-05-23T11:25:26.842Z,64.3
2018-05-23T11:26:17.565Z,64.3
2018-05-23T11:27:07.259Z,64.3
2018-05-23T11:27:57.314Z,64.3
2018-05-23T11:28:47.379Z,64.3
2018-05-23T11:29:37.876Z,64.3
2018-05-23T11:30:27.808Z,64.1
2018-05-23T11:31:17.876Z,64
2018-05-23T11:32:08.214Z,63.9
2018-05-23T11:32:57.726Z,63.8
2018-05-23T11:33:48.373Z,63.6
2018-05-23T11:34:37.861Z,63.4
2018-05-23T11:35:28.513Z,63.3
2018-05-23T11:36:18.268Z,63.2
2018-05-23T11:37:08.626Z,63.1
2018-05-23T11:37:58.668Z,62.9
2018-05-23T11:38:48.263Z,62.7
2018-05-23T11:39:38.529Z,62.6
2018-05-23T11:40:28.891Z,62.5
2018-05-23T11:41:18.538Z,62.5
2018-05-23T11:42:08.734Z,62.6
2018-05-23T11:42:58.306Z,62.7
2018-05-23T11:43:48.362Z,62.8
2018-05-23T11:44:38.435Z,62.9
2018-05-23T11:45:29.363Z,62.9
2018-05-23T11:46:18.476Z,62.9
2018-05-23T11:47:09.399Z,62.8
2018-05-23T11:47:58.896Z,62.7
2018-05-23T11:48:49.229Z,62.6
2018-05-23T11:49:39.014Z,62.5
2018-05-23T11:50:29.080Z,62.6
2018-05-23T11:51:19.447Z,62.6
2018-05-23T11:52:09.683Z,62.6
2018-05-23T11:52:59.849Z,62.6
2018-05-23T11:53:49.646Z,62.6
2018-05-23T11:54:39.932Z,62.4
2018-05-23T11:55:29.767Z,62.4
2018-05-23T11:56:20.117Z,62.3
2018-05-23T11:57:09.887Z,62.1
2018-05-23T11:57:59.967Z,62.1
2018-05-23T11:58:50.309Z,62.1
2018-05-23T11:59:40.399Z,62.2
2018-05-23T12:00:30.173Z,62.2
2018-05-23T12:01:19.951Z,62.1
2018-05-23T12:02:10.384Z,62.1
2018-05-23T12:03:00.358Z,62.1
2018-05-23T12:03:50.809Z,62
2018-05-23T12:04:40.563Z,61.9
2018-05-23T12:05:30.919Z,61.9
2018-05-23T12:06:20.935Z,61.9
2018-05-23T12:07:10.386Z,61.9
2018-05-23T12:08:00.749Z,61.9
2018-05-23T12:08:50.616Z,61.9
2018-05-23T12:09:40.671Z,61.8
2018-05-23T12:10:31.203Z,61.8
2018-05-23T12:11:21.296Z,61.7
2018-05-23T12:12:10.774Z,61.6
2018-05-23T12:13:01.451Z,61.5
2018-05-23T12:13:50.931Z,61.3
2018-05-23T12:14:41.360Z,60.9
2018-05-23T12:15:31.632Z,60.7
2018-05-23T12:16:21.701Z,60.4
2018-05-23T12:17:11.751Z,60.3
2018-05-23T12:18:01.829Z,60.1
2018-05-23T12:18:51.394Z,59.9
2018-05-23T12:19:41.185Z,59.7
2018-05-23T12:20:32.026Z,59.6
2018-05-23T12:21:22.079Z,59.5
2018-05-23T12:22:11.836Z,59.4
2018-05-23T12:23:01.636Z,59.4
2018-05-23T12:23:51.534Z,59.3
2018-05-23T12:24:41.657Z,59.2
2018-05-23T12:25:32.410Z,59.1
2018-05-23T12:26:22.178Z,59.1
2018-05-23T12:27:12.253Z,59
2018-05-23T12:28:02.639Z,59
2018-05-23T12:28:52.110Z,58.8
2018-05-23T12:29:42.735Z,58.3
2018-05-23T12:30:32.788Z,57.8
2018-05-23T12:31:22.583Z,57.7
2018-05-23T12:32:12.732Z,57.9
2018-05-23T12:33:02.429Z,58.8
2018-05-23T12:33:53.090Z,59.5
2018-05-23T12:34:42.655Z,61.4
2018-05-23T12:35:33.210Z,62.2
2018-05-23T12:36:22.679Z,62.1
2018-05-23T12:37:12.555Z,61.6
2018-05-23T12:38:03.376Z,60.8
2018-05-23T12:38:53.481Z,60.3
2018-05-23T12:39:43.581Z,60.2
2018-05-23T12:40:33.594Z,60.6
2018-05-23T12:41:23.676Z,61.1
2018-05-23T12:42:13.436Z,61.5
2018-05-23T12:43:03.811Z,61.6
2018-05-23T12:43:53.366Z,61.4
2018-05-23T12:44:43.914Z,61.2
2018-05-23T12:45:33.995Z,61.1
2018-05-23T12:46:23.770Z,61.1
2018-05-23T12:47:13.831Z,61.2
2018-05-23T12:48:04.164Z,61.4
2018-05-23T12:48:53.469Z,61.6
2018-05-23T12:49:44.058Z,61.6
2018-05-23T12:50:34.080Z,61.6
2018-05-23T12:51:24.151Z,61.4
2018-05-23T12:52:14.498Z,61.4
2018-05-23T12:53:04.003Z,61.3
2018-05-23T12:53:54.633Z,61.3
2018-05-23T12:54:44.404Z,61.3
2018-05-23T12:55:34.557Z,61.1
2018-05-23T12:56:24.818Z,60.6
2018-05-23T12:57:14.313Z,60.4
2018-05-23T12:58:04.394Z,60.4
2018-05-23T12:58:55.040Z,60.3
2018-05-23T12:59:44.811Z,60
2018-05-23T13:00:34.479Z,59.6
2018-05-23T13:01:24.949Z,59.1
2018-05-23T13:02:15.022Z,58.1
2018-05-23T13:03:05.055Z,57.1
2018-05-23T13:03:54.991Z,56.1
2018-05-23T13:04:44.927Z,55.3
2018-05-23T13:05:35.543Z,54.5
2018-05-23T13:06:25.616Z,53.8
2018-05-23T13:07:15.387Z,53.2
2018-05-23T13:08:05.176Z,52.6
2018-05-23T13:08:55.788Z,51.9
2018-05-23T13:09:45.103Z,51.3
2018-05-23T13:10:35.657Z,50.7
2018-05-23T13:11:25.449Z,50.1
2018-05-23T13:12:15.803Z,49.6
2018-05-23T13:13:06.157Z,49.1
